WIMM

Medan / Polonia International Airport

Medan-Sumatra Island, Indonesia
TAF WIMM 171700Z 1718/1818 VRB03KT 3000 BR SCT018 BECMG 1804/1806 03010KT 9999
Issued Valid From Valid To
Nov-17 @ 17:00 UTC
(5 hours ago)
Nov-17 @ 18:00 UTC
(4 hours ago)
Nov-18 @ 18:00 UTC
(in 20 hours)
Nov-17 @ 18:00 to Nov-18 @ 04:00
TAF WIMM 171700Z 1718/1818 VRB03KT 3000 BR SCT018
Wind Visibility Clouds Conditions
Variable at 3 knots 2,993 meters
  • Scattered at 1,800' AGL
  • Mist
Becoming Nov-18 @ 04:00 to Nov-18 @ 18:00
BECMG 1804/1806 03010KT 9999
Wind Visibility Clouds Conditions
30° at 10 knots 10,000+ meters
  • Scattered at 1,800' AGL
  • Mist
TAF WIMM 171700Z 1718/1818 VRB03KT 3000 BR SCT018 BECMG 1804/1806 03010KT 9999
Issued Nov-17 @ 17:00 UTC
(5 hours ago)
Valid From Nov-17 @ 18:00 UTC
(4 hours ago)
Valid To Nov-18 @ 18:00 UTC
(in 20 hours)
Nov-17 @ 18:00 - Nov-18 @ 04:00
Wind Visibility
Variable at 3 knots 2,993 meters
Clouds
  • Scattered at 1,800' AGL
Conditions
  • Mist
Becoming Nov-18 @ 04:00 - Nov-18 @ 18:00
Wind Visibility
30° at 10 knots 10,000+ meters
Clouds
  • Scattered at 1,800' AGL
Conditions
  • Mist